sensor_id;sensor_type;location;lat;lon;timestamp;P1;durP1;ratioP1;P2;durP2;ratioP2
30096;SDS011;16915;51.466;3.610;2022-12-18T00:01:15;69.72;;;27.50;;
30096;SDS011;16915;51.466;3.610;2022-12-18T00:03:43;60.58;;;26.13;;
30096;SDS011;16915;51.466;3.610;2022-12-18T00:06:09;64.30;;;26.15;;
30096;SDS011;16915;51.466;3.610;2022-12-18T00:08:36;62.40;;;27.42;;
30096;SDS011;16915;51.466;3.610;2022-12-18T00:11:05;55.70;;;25.40;;
30096;SDS011;16915;51.466;3.610;2022-12-18T00:13:33;43.83;;;18.40;;
30096;SDS011;16915;51.466;3.610;2022-12-18T00:16:06;55.67;;;24.20;;
30096;SDS011;16915;51.466;3.610;2022-12-18T00:18:34;52.83;;;24.08;;
30096;SDS011;16915;51.466;3.610;2022-12-18T00:21:00;52.45;;;23.75;;
30096;SDS011;16915;51.466;3.610;2022-12-18T00:23:28;61.90;;;24.02;;
30096;SDS011;16915;51.466;3.610;2022-12-18T00:25:58;63.33;;;25.45;;
30096;SDS011;16915;51.466;3.610;2022-12-18T00:28:27;63.65;;;26.60;;
30096;SDS011;16915;51.466;3.610;2022-12-18T00:31:02;70.63;;;27.55;;
30096;SDS011;16915;51.466;3.610;2022-12-18T00:33:34;50.55;;;21.00;;
30096;SDS011;16915;51.466;3.610;2022-12-18T00:36:01;83.65;;;31.45;;
30096;SDS011;16915;51.466;3.610;2022-12-18T00:38:27;84.25;;;31.45;;
30096;SDS011;16915;51.466;3.610;2022-12-18T00:40:53;80.43;;;32.38;;
30096;SDS011;16915;51.466;3.610;2022-12-18T00:43:19;82.05;;;33.45;;
30096;SDS011;16915;51.466;3.610;2022-12-18T00:45:45;78.13;;;32.08;;
30096;SDS011;16915;51.466;3.610;2022-12-18T00:48:10;75.63;;;33.25;;
30096;SDS011;16915;51.466;3.610;2022-12-18T00:50:36;79.95;;;32.03;;
30096;SDS011;16915;51.466;3.610;2022-12-18T00:53:02;82.13;;;32.97;;
30096;SDS011;16915;51.466;3.610;2022-12-18T00:55:27;86.55;;;33.45;;
30096;SDS011;16915;51.466;3.610;2022-12-18T00:57:54;83.35;;;33.33;;
30096;SDS011;16915;51.466;3.610;2022-12-18T01:00:20;82.65;;;33.85;;
30096;SDS011;16915;51.466;3.610;2022-12-18T01:02:46;86.55;;;35.55;;
30096;SDS011;16915;51.466;3.610;2022-12-18T01:05:12;96.60;;;35.95;;
30096;SDS011;16915;51.466;3.610;2022-12-18T01:07:38;88.97;;;35.65;;
30096;SDS011;16915;51.466;3.610;2022-12-18T01:10:04;98.45;;;36.35;;
30096;SDS011;16915;51.466;3.610;2022-12-18T01:12:31;92.20;;;33.03;;
30096;SDS011;16915;51.466;3.610;2022-12-18T01:14:57;88.32;;;33.42;;
30096;SDS011;16915;51.466;3.610;2022-12-18T01:17:22;85.20;;;31.98;;
30096;SDS011;16915;51.466;3.610;2022-12-18T01:19:48;83.60;;;31.95;;
30096;SDS011;16915;51.466;3.610;2022-12-18T01:22:14;80.75;;;32.05;;
30096;SDS011;16915;51.466;3.610;2022-12-18T01:24:39;77.32;;;29.10;;
30096;SDS011;16915;51.466;3.610;2022-12-18T01:27:05;64.30;;;27.60;;
30096;SDS011;16915;51.466;3.610;2022-12-18T01:29:32;68.82;;;25.05;;
30096;SDS011;16915;51.466;3.610;2022-12-18T01:31:58;64.82;;;27.35;;
30096;SDS011;16915;51.466;3.610;2022-12-18T01:34:23;66.28;;;26.45;;
30096;SDS011;16915;51.466;3.610;2022-12-18T01:36:49;61.35;;;25.48;;
30096;SDS011;16915;51.466;3.610;2022-12-18T01:39:17;64.20;;;25.17;;
30096;SDS011;16915;51.466;3.610;2022-12-18T01:41:45;60.45;;;23.63;;
30096;SDS011;16915;51.466;3.610;2022-12-18T01:52:35;47.20;;;21.48;;
30096;SDS011;16915;51.466;3.610;2022-12-18T01:55:05;47.47;;;20.45;;
30096;SDS011;16915;51.466;3.610;2022-12-18T01:57:33;45.58;;;18.60;;
30096;SDS011;16915;51.466;3.610;2022-12-18T02:00:00;53.45;;;21.10;;
30096;SDS011;16915;51.466;3.610;2022-12-18T02:02:36;66.03;;;23.08;;
30096;SDS011;16915;51.466;3.610;2022-12-18T02:05:02;81.82;;;23.67;;
30096;SDS011;16915;51.466;3.610;2022-12-18T02:07:35;82.18;;;24.27;;
30096;SDS011;16915;51.466;3.610;2022-12-18T02:10:14;62.67;;;23.08;;
30096;SDS011;16915;51.466;3.610;2022-12-18T02:12:55;68.63;;;24.58;;
30096;SDS011;16915;51.466;3.610;2022-12-18T02:15:45;67.47;;;23.63;;
30096;SDS011;16915;51.466;3.610;2022-12-18T02:18:30;66.17;;;17.13;;
30096;SDS011;16915;51.466;3.610;2022-12-18T02:29:01;68.13;;;23.88;;
30096;SDS011;16915;51.466;3.610;2022-12-18T02:31:32;56.55;;;23.02;;
30096;SDS011;16915;51.466;3.610;2022-12-18T02:34:05;62.17;;;23.05;;
30096;SDS011;16915;51.466;3.610;2022-12-18T02:36:33;63.72;;;24.45;;
30096;SDS011;16915;51.466;3.610;2022-12-18T02:39:03;57.88;;;23.27;;
30096;SDS011;16915;51.466;3.610;2022-12-18T02:41:31;53.85;;;21.75;;
30096;SDS011;16915;51.466;3.610;2022-12-18T02:44:01;66.30;;;23.63;;
30096;SDS011;16915;51.466;3.610;2022-12-18T02:46:34;63.97;;;24.23;;
30096;SDS011;16915;51.466;3.610;2022-12-18T02:54:43;58.75;;;23.17;;
30096;SDS011;16915;51.466;3.610;2022-12-18T03:00:22;52.08;;;20.63;;
30096;SDS011;16915;51.466;3.610;2022-12-18T03:03:07;57.17;;;21.65;;
30096;SDS011;16915;51.466;3.610;2022-12-18T03:05:58;55.55;;;21.55;;
30096;SDS011;16915;51.466;3.610;2022-12-18T03:08:47;60.30;;;21.05;;
30096;SDS011;16915;51.466;3.610;2022-12-18T03:11:16;42.67;;;16.10;;
30096;SDS011;16915;51.466;3.610;2022-12-18T03:14:01;49.67;;;20.23;;
30096;SDS011;16915;51.466;3.610;2022-12-18T03:16:29;49.03;;;20.83;;
30096;SDS011;16915;51.466;3.610;2022-12-18T03:19:18;58.55;;;21.98;;
30096;SDS011;16915;51.466;3.610;2022-12-18T03:21:45;53.30;;;19.80;;
30096;SDS011;16915;51.466;3.610;2022-12-18T03:24:14;55.75;;;20.25;;
30096;SDS011;16915;51.466;3.610;2022-12-18T03:26:46;50.25;;;19.80;;
30096;SDS011;16915;51.466;3.610;2022-12-18T03:29:18;55.08;;;20.10;;
30096;SDS011;16915;51.466;3.610;2022-12-18T03:31:49;59.63;;;19.65;;
30096;SDS011;16915;51.466;3.610;2022-12-18T03:34:21;51.97;;;18.83;;
30096;SDS011;16915;51.466;3.610;2022-12-18T03:36:52;46.45;;;18.98;;
30096;SDS011;16915;51.466;3.610;2022-12-18T03:39:18;54.17;;;20.25;;
30096;SDS011;16915;51.466;3.610;2022-12-18T03:41:46;43.35;;;18.17;;
30096;SDS011;16915;51.466;3.610;2022-12-18T03:44:31;51.20;;;19.13;;
30096;SDS011;16915;51.466;3.610;2022-12-18T03:47:17;55.17;;;19.88;;
30096;SDS011;16915;51.466;3.610;2022-12-18T03:49:57;52.10;;;20.27;;
30096;SDS011;16915;51.466;3.610;2022-12-18T03:52:41;41.65;;;18.42;;
30096;SDS011;16915;51.466;3.610;2022-12-18T03:55:30;44.35;;;18.38;;
30096;SDS011;16915;51.466;3.610;2022-12-18T03:57:59;41.17;;;16.75;;
30096;SDS011;16915;51.466;3.610;2022-12-18T04:00:27;38.88;;;17.58;;
30096;SDS011;16915;51.466;3.610;2022-12-18T04:02:54;48.15;;;18.65;;
30096;SDS011;16915;51.466;3.610;2022-12-18T04:05:22;50.55;;;18.75;;
30096;SDS011;16915;51.466;3.610;2022-12-18T04:07:50;43.30;;;17.95;;
30096;SDS011;16915;51.466;3.610;2022-12-18T04:10:18;43.55;;;17.67;;
30096;SDS011;16915;51.466;3.610;2022-12-18T04:12:43;53.00;;;19.92;;
30096;SDS011;16915;51.466;3.610;2022-12-18T04:15:10;43.03;;;18.40;;
30096;SDS011;16915;51.466;3.610;2022-12-18T04:17:36;46.75;;;18.90;;
30096;SDS011;16915;51.466;3.610;2022-12-18T04:20:03;44.88;;;17.88;;
30096;SDS011;16915;51.466;3.610;2022-12-18T04:22:29;41.80;;;19.10;;
30096;SDS011;16915;51.466;3.610;2022-12-18T04:24:54;47.45;;;18.75;;
30096;SDS011;16915;51.466;3.610;2022-12-18T04:27:20;44.58;;;16.98;;
30096;SDS011;16915;51.466;3.610;2022-12-18T04:29:46;48.22;;;18.08;;
30096;SDS011;16915;51.466;3.610;2022-12-18T04:32:11;44.00;;;17.20;;
30096;SDS011;16915;51.466;3.610;2022-12-18T04:34:37;48.80;;;18.23;;
30096;SDS011;16915;51.466;3.610;2022-12-18T04:37:03;46.13;;;19.00;;
30096;SDS011;16915;51.466;3.610;2022-12-18T04:39:28;48.83;;;17.92;;
30096;SDS011;16915;51.466;3.610;2022-12-18T04:41:55;52.75;;;18.83;;
30096;SDS011;16915;51.466;3.610;2022-12-18T04:44:21;44.38;;;18.48;;
30096;SDS011;16915;51.466;3.610;2022-12-18T04:46:46;39.90;;;18.10;;
30096;SDS011;16915;51.466;3.610;2022-12-18T04:49:12;46.08;;;19.05;;
30096;SDS011;16915;51.466;3.610;2022-12-18T04:51:38;44.60;;;17.20;;
30096;SDS011;16915;51.466;3.610;2022-12-18T04:54:03;50.45;;;18.30;;
30096;SDS011;16915;51.466;3.610;2022-12-18T04:56:30;42.88;;;18.13;;
30096;SDS011;16915;51.466;3.610;2022-12-18T04:58:56;45.83;;;17.45;;
30096;SDS011;16915;51.466;3.610;2022-12-18T05:01:22;37.70;;;17.75;;
30096;SDS011;16915;51.466;3.610;2022-12-18T05:03:47;45.47;;;18.02;;
30096;SDS011;16915;51.466;3.610;2022-12-18T05:06:13;42.83;;;17.08;;
30096;SDS011;16915;51.466;3.610;2022-12-18T05:08:39;44.15;;;17.05;;
30096;SDS011;16915;51.466;3.610;2022-12-18T05:11:06;38.35;;;17.35;;
30096;SDS011;16915;51.466;3.610;2022-12-18T05:13:41;37.25;;;16.17;;
30096;SDS011;16915;51.466;3.610;2022-12-18T05:16:07;34.53;;;15.05;;
30096;SDS011;16915;51.466;3.610;2022-12-18T05:18:34;36.20;;;15.02;;
30096;SDS011;16915;51.466;3.610;2022-12-18T05:20:59;37.13;;;15.13;;
30096;SDS011;16915;51.466;3.610;2022-12-18T05:23:26;35.72;;;15.65;;
30096;SDS011;16915;51.466;3.610;2022-12-18T05:25:56;36.22;;;15.18;;
30096;SDS011;16915;51.466;3.610;2022-12-18T05:28:24;35.95;;;15.38;;
30096;SDS011;16915;51.466;3.610;2022-12-18T05:30:51;32.83;;;13.20;;
30096;SDS011;16915;51.466;3.610;2022-12-18T05:33:18;29.25;;;13.57;;
30096;SDS011;16915;51.466;3.610;2022-12-18T05:35:52;35.15;;;14.00;;
30096;SDS011;16915;51.466;3.610;2022-12-18T05:38:19;32.97;;;13.50;;
30096;SDS011;16915;51.466;3.610;2022-12-18T05:40:47;36.25;;;14.10;;
30096;SDS011;16915;51.466;3.610;2022-12-18T05:43:13;32.45;;;13.13;;
30096;SDS011;16915;51.466;3.610;2022-12-18T05:45:39;30.52;;;13.55;;
30096;SDS011;16915;51.466;3.610;2022-12-18T05:48:05;38.35;;;14.75;;
30096;SDS011;16915;51.466;3.610;2022-12-18T05:50:35;29.20;;;13.52;;
30096;SDS011;16915;51.466;3.610;2022-12-18T05:53:05;29.83;;;13.32;;
30096;SDS011;16915;51.466;3.610;2022-12-18T05:55:35;29.40;;;14.02;;
30096;SDS011;16915;51.466;3.610;2022-12-18T05:58:03;28.55;;;13.32;;
30096;SDS011;16915;51.466;3.610;2022-12-18T06:00:30;28.83;;;11.23;;
30096;SDS011;16915;51.466;3.610;2022-12-18T06:02:57;21.55;;;10.55;;
30096;SDS011;16915;51.466;3.610;2022-12-18T06:05:23;17.55;;;8.00;;
30096;SDS011;16915;51.466;3.610;2022-12-18T06:07:49;14.30;;;7.25;;
30096;SDS011;16915;51.466;3.610;2022-12-18T06:10:15;17.50;;;8.27;;
30096;SDS011;16915;51.466;3.610;2022-12-18T06:12:44;22.70;;;9.82;;
30096;SDS011;16915;51.466;3.610;2022-12-18T06:15:09;19.98;;;8.25;;
30096;SDS011;16915;51.466;3.610;2022-12-18T06:17:35;17.20;;;8.52;;
30096;SDS011;16915;51.466;3.610;2022-12-18T06:20:01;19.05;;;9.38;;
30096;SDS011;16915;51.466;3.610;2022-12-18T06:22:27;15.73;;;7.85;;
30096;SDS011;16915;51.466;3.610;2022-12-18T06:24:55;17.40;;;8.13;;
30096;SDS011;16915;51.466;3.610;2022-12-18T06:27:20;18.77;;;8.68;;
30096;SDS011;16915;51.466;3.610;2022-12-18T06:29:46;13.60;;;7.15;;
30096;SDS011;16915;51.466;3.610;2022-12-18T06:32:12;18.17;;;8.63;;
30096;SDS011;16915;51.466;3.610;2022-12-18T06:34:38;20.70;;;8.18;;
30096;SDS011;16915;51.466;3.610;2022-12-18T06:37:03;15.32;;;7.10;;
30096;SDS011;16915;51.466;3.610;2022-12-18T06:39:29;17.73;;;8.32;;
30096;SDS011;16915;51.466;3.610;2022-12-18T06:41:55;15.07;;;8.75;;
30096;SDS011;16915;51.466;3.610;2022-12-18T06:44:21;20.27;;;8.40;;
30096;SDS011;16915;51.466;3.610;2022-12-18T06:46:46;15.57;;;6.50;;
30096;SDS011;16915;51.466;3.610;2022-12-18T06:49:12;17.48;;;7.88;;
30096;SDS011;16915;51.466;3.610;2022-12-18T06:51:38;18.48;;;7.75;;
30096;SDS011;16915;51.466;3.610;2022-12-18T06:54:05;15.95;;;7.78;;
30096;SDS011;16915;51.466;3.610;2022-12-18T06:56:30;14.13;;;7.15;;
30096;SDS011;16915;51.466;3.610;2022-12-18T06:58:56;13.27;;;7.38;;
30096;SDS011;16915;51.466;3.610;2022-12-18T07:01:22;16.67;;;7.32;;
30096;SDS011;16915;51.466;3.610;2022-12-18T07:03:51;22.50;;;7.75;;
30096;SDS011;16915;51.466;3.610;2022-12-18T07:06:24;20.10;;;8.35;;
30096;SDS011;16915;51.466;3.610;2022-12-18T07:08:51;17.65;;;7.47;;
30096;SDS011;16915;51.466;3.610;2022-12-18T07:11:18;15.00;;;7.45;;
30096;SDS011;16915;51.466;3.610;2022-12-18T07:13:44;14.85;;;7.25;;
30096;SDS011;16915;51.466;3.610;2022-12-18T07:16:11;15.20;;;7.38;;
30096;SDS011;16915;51.466;3.610;2022-12-18T07:18:39;12.55;;;5.93;;
30096;SDS011;16915;51.466;3.610;2022-12-18T07:21:08;14.30;;;8.07;;
30096;SDS011;16915;51.466;3.610;2022-12-18T07:23:35;21.73;;;9.27;;
30096;SDS011;16915;51.466;3.610;2022-12-18T07:26:05;14.52;;;8.32;;
30096;SDS011;16915;51.466;3.610;2022-12-18T07:28:33;17.17;;;7.88;;
30096;SDS011;16915;51.466;3.610;2022-12-18T07:31:07;6.22;;;4.38;;
30096;SDS011;16915;51.466;3.610;2022-12-18T07:33:38;13.52;;;6.00;;
30096;SDS011;16915;51.466;3.610;2022-12-18T07:36:04;14.45;;;6.93;;
30096;SDS011;16915;51.466;3.610;2022-12-18T07:38:32;15.13;;;6.78;;
30096;SDS011;16915;51.466;3.610;2022-12-18T07:41:06;15.65;;;9.20;;
30096;SDS011;16915;51.466;3.610;2022-12-18T07:43:33;16.80;;;9.38;;
30096;SDS011;16915;51.466;3.610;2022-12-18T07:46:00;15.02;;;8.13;;
30096;SDS011;16915;51.466;3.610;2022-12-18T07:48:26;19.85;;;8.48;;
30096;SDS011;16915;51.466;3.610;2022-12-18T07:50:52;14.57;;;7.68;;
30096;SDS011;16915;51.466;3.610;2022-12-18T07:53:18;19.27;;;8.30;;
30096;SDS011;16915;51.466;3.610;2022-12-18T07:55:43;15.45;;;8.27;;
30096;SDS011;16915;51.466;3.610;2022-12-18T07:58:09;19.80;;;9.35;;
30096;SDS011;16915;51.466;3.610;2022-12-18T08:00:35;14.55;;;7.72;;
30096;SDS011;16915;51.466;3.610;2022-12-18T08:03:01;14.38;;;7.07;;
30096;SDS011;16915;51.466;3.610;2022-12-18T08:05:27;16.95;;;7.90;;
30096;SDS011;16915;51.466;3.610;2022-12-18T08:07:54;16.15;;;8.40;;
30096;SDS011;16915;51.466;3.610;2022-12-18T08:10:19;11.75;;;7.50;;
30096;SDS011;16915;51.466;3.610;2022-12-18T08:12:48;18.15;;;8.63;;
30096;SDS011;16915;51.466;3.610;2022-12-18T08:15:14;17.38;;;9.23;;
30096;SDS011;16915;51.466;3.610;2022-12-18T08:17:40;16.25;;;7.88;;
30096;SDS011;16915;51.466;3.610;2022-12-18T08:20:06;16.15;;;8.10;;
30096;SDS011;16915;51.466;3.610;2022-12-18T08:22:33;13.98;;;7.97;;
30096;SDS011;16915;51.466;3.610;2022-12-18T08:25:03;13.85;;;7.47;;
30096;SDS011;16915;51.466;3.610;2022-12-18T08:27:29;12.75;;;7.13;;
30096;SDS011;16915;51.466;3.610;2022-12-18T08:29:55;14.27;;;7.18;;
30096;SDS011;16915;51.466;3.610;2022-12-18T08:32:21;13.35;;;7.45;;
30096;SDS011;16915;51.466;3.610;2022-12-18T08:34:47;14.18;;;6.93;;
30096;SDS011;16915;51.466;3.610;2022-12-18T08:37:13;14.35;;;7.20;;
30096;SDS011;16915;51.466;3.610;2022-12-18T08:39:38;14.20;;;6.88;;
30096;SDS011;16915;51.466;3.610;2022-12-18T08:42:04;11.15;;;7.00;;
30096;SDS011;16915;51.466;3.610;2022-12-18T08:44:48;13.57;;;7.32;;
30096;SDS011;16915;51.466;3.610;2022-12-18T08:47:13;13.02;;;6.85;;
30096;SDS011;16915;51.466;3.610;2022-12-18T08:49:39;14.20;;;7.22;;
30096;SDS011;16915;51.466;3.610;2022-12-18T08:52:06;14.40;;;6.95;;
30096;SDS011;16915;51.466;3.610;2022-12-18T08:54:32;17.90;;;7.40;;
30096;SDS011;16915;51.466;3.610;2022-12-18T08:56:57;13.93;;;7.43;;
30096;SDS011;16915;51.466;3.610;2022-12-18T08:59:23;13.52;;;6.75;;
30096;SDS011;16915;51.466;3.610;2022-12-18T09:01:49;13.27;;;7.18;;
30096;SDS011;16915;51.466;3.610;2022-12-18T09:04:14;14.68;;;8.02;;
30096;SDS011;16915;51.466;3.610;2022-12-18T09:06:40;16.58;;;7.50;;
30096;SDS011;16915;51.466;3.610;2022-12-18T09:09:06;13.95;;;7.15;;
30096;SDS011;16915;51.466;3.610;2022-12-18T09:11:33;17.63;;;6.55;;
30096;SDS011;16915;51.466;3.610;2022-12-18T09:13:59;13.45;;;7.82;;
30096;SDS011;16915;51.466;3.610;2022-12-18T09:16:26;12.85;;;7.13;;
30096;SDS011;16915;51.466;3.610;2022-12-18T09:18:53;12.43;;;6.75;;
30096;SDS011;16915;51.466;3.610;2022-12-18T09:21:25;15.45;;;7.70;;
30096;SDS011;16915;51.466;3.610;2022-12-18T09:23:53;14.18;;;6.57;;
30096;SDS011;16915;51.466;3.610;2022-12-18T09:26:20;13.55;;;7.20;;
30096;SDS011;16915;51.466;3.610;2022-12-18T09:28:46;13.75;;;6.55;;
30096;SDS011;16915;51.466;3.610;2022-12-18T09:31:12;13.60;;;7.35;;
30096;SDS011;16915;51.466;3.610;2022-12-18T09:33:41;13.48;;;7.18;;
30096;SDS011;16915;51.466;3.610;2022-12-18T09:36:08;18.10;;;8.38;;
30096;SDS011;16915;51.466;3.610;2022-12-18T09:38:35;15.23;;;7.53;;
30096;SDS011;16915;51.466;3.610;2022-12-18T09:43:45;17.15;;;8.55;;
30096;SDS011;16915;51.466;3.610;2022-12-18T09:46:20;15.20;;;8.25;;
30096;SDS011;16915;51.466;3.610;2022-12-18T09:48:52;13.10;;;7.13;;
30096;SDS011;16915;51.466;3.610;2022-12-18T09:51:43;12.68;;;6.47;;
30096;SDS011;16915;51.466;3.610;2022-12-18T09:54:17;15.00;;;7.93;;
30096;SDS011;16915;51.466;3.610;2022-12-18T09:56:46;14.82;;;7.82;;
30096;SDS011;16915;51.466;3.610;2022-12-18T09:59:21;14.43;;;8.10;;
30096;SDS011;16915;51.466;3.610;2022-12-18T10:02:05;13.70;;;7.13;;
30096;SDS011;16915;51.466;3.610;2022-12-18T10:04:38;12.02;;;7.20;;
30096;SDS011;16915;51.466;3.610;2022-12-18T10:07:07;15.35;;;8.13;;
30096;SDS011;16915;51.466;3.610;2022-12-18T10:12:17;12.68;;;6.65;;
30096;SDS011;16915;51.466;3.610;2022-12-18T10:14:54;14.90;;;7.55;;
30096;SDS011;16915;51.466;3.610;2022-12-18T10:20:24;15.90;;;8.07;;
30096;SDS011;16915;51.466;3.610;2022-12-18T10:26:02;13.95;;;7.25;;
30096;SDS011;16915;51.466;3.610;2022-12-18T10:28:30;14.68;;;7.47;;
30096;SDS011;16915;51.466;3.610;2022-12-18T10:30:57;13.45;;;8.07;;
30096;SDS011;16915;51.466;3.610;2022-12-18T10:33:27;15.05;;;7.50;;
30096;SDS011;16915;51.466;3.610;2022-12-18T10:35:54;13.73;;;7.75;;
30096;SDS011;16915;51.466;3.610;2022-12-18T10:38:21;13.93;;;7.90;;
30096;SDS011;16915;51.466;3.610;2022-12-18T10:43:23;14.68;;;7.47;;
30096;SDS011;16915;51.466;3.610;2022-12-18T10:46:12;14.27;;;7.10;;
30096;SDS011;16915;51.466;3.610;2022-12-18T10:54:01;14.50;;;7.15;;
30096;SDS011;16915;51.466;3.610;2022-12-18T10:56:30;15.48;;;7.55;;
30096;SDS011;16915;51.466;3.610;2022-12-18T10:59:02;13.68;;;7.22;;
30096;SDS011;16915;51.466;3.610;2022-12-18T11:01:55;17.75;;;7.40;;
30096;SDS011;16915;51.466;3.610;2022-12-18T11:09:23;13.85;;;7.43;;
30096;SDS011;16915;51.466;3.610;2022-12-18T11:11:50;14.57;;;8.25;;
30096;SDS011;16915;51.466;3.610;2022-12-18T11:14:29;13.80;;;7.78;;
30096;SDS011;16915;51.466;3.610;2022-12-18T11:17:16;12.88;;;7.50;;
30096;SDS011;16915;51.466;3.610;2022-12-18T11:19:44;17.23;;;8.38;;
30096;SDS011;16915;51.466;3.610;2022-12-18T11:22:19;16.67;;;8.02;;
30096;SDS011;16915;51.466;3.610;2022-12-18T11:24:55;17.42;;;8.57;;
30096;SDS011;16915;51.466;3.610;2022-12-18T11:27:25;14.68;;;7.72;;
30096;SDS011;16915;51.466;3.610;2022-12-18T11:29:53;16.55;;;8.23;;
30096;SDS011;16915;51.466;3.610;2022-12-18T11:32:34;13.52;;;8.05;;
30096;SDS011;16915;51.466;3.610;2022-12-18T11:37:52;14.70;;;8.18;;
30096;SDS011;16915;51.466;3.610;2022-12-18T11:40:27;14.75;;;8.07;;
30096;SDS011;16915;51.466;3.610;2022-12-18T11:46:07;13.98;;;7.43;;
30096;SDS011;16915;51.466;3.610;2022-12-18T11:48:41;11.70;;;6.82;;
30096;SDS011;16915;51.466;3.610;2022-12-18T11:51:14;15.77;;;7.22;;
30096;SDS011;16915;51.466;3.610;2022-12-18T11:53:46;13.57;;;7.80;;
30096;SDS011;16915;51.466;3.610;2022-12-18T11:56:31;23.75;;;9.05;;
30096;SDS011;16915;51.466;3.610;2022-12-18T11:59:05;14.73;;;8.15;;
30096;SDS011;16915;51.466;3.610;2022-12-18T12:04:40;16.23;;;8.27;;
30096;SDS011;16915;51.466;3.610;2022-12-18T12:07:34;13.35;;;7.78;;
30096;SDS011;16915;51.466;3.610;2022-12-18T12:18:44;16.00;;;8.23;;
30096;SDS011;16915;51.466;3.610;2022-12-18T12:21:41;13.43;;;8.00;;
30096;SDS011;16915;51.466;3.610;2022-12-18T12:29:32;17.20;;;8.60;;
30096;SDS011;16915;51.466;3.610;2022-12-18T12:32:31;16.08;;;8.95;;
30096;SDS011;16915;51.466;3.610;2022-12-18T12:35:22;17.23;;;9.13;;
30096;SDS011;16915;51.466;3.610;2022-12-18T12:41:03;19.63;;;8.52;;
30096;SDS011;16915;51.466;3.610;2022-12-18T12:43:35;17.17;;;9.40;;
30096;SDS011;16915;51.466;3.610;2022-12-18T12:46:12;12.10;;;7.22;;
30096;SDS011;16915;51.466;3.610;2022-12-18T12:48:51;16.55;;;9.43;;
30096;SDS011;16915;51.466;3.610;2022-12-18T12:51:22;21.53;;;9.77;;
30096;SDS011;16915;51.466;3.610;2022-12-18T12:53:59;16.33;;;9.50;;
30096;SDS011;16915;51.466;3.610;2022-12-18T12:56:29;17.00;;;9.40;;
30096;SDS011;16915;51.466;3.610;2022-12-18T13:01:55;18.10;;;8.60;;
30096;SDS011;16915;51.466;3.610;2022-12-18T13:04:36;18.95;;;9.63;;
30096;SDS011;16915;51.466;3.610;2022-12-18T13:07:10;20.08;;;10.50;;
30096;SDS011;16915;51.466;3.610;2022-12-18T13:20:42;18.15;;;9.45;;
30096;SDS011;16915;51.466;3.610;2022-12-18T13:25:48;20.92;;;10.73;;
30096;SDS011;16915;51.466;3.610;2022-12-18T13:28:49;22.95;;;11.77;;
30096;SDS011;16915;51.466;3.610;2022-12-18T13:34:04;21.48;;;10.55;;
30096;SDS011;16915;51.466;3.610;2022-12-18T13:36:41;20.00;;;10.60;;
30096;SDS011;16915;51.466;3.610;2022-12-18T13:41:46;21.77;;;11.35;;
30096;SDS011;16915;51.466;3.610;2022-12-18T13:44:33;19.05;;;11.23;;
30096;SDS011;16915;51.466;3.610;2022-12-18T13:47:05;25.13;;;11.48;;
30096;SDS011;16915;51.466;3.610;2022-12-18T13:49:57;20.23;;;11.07;;
30096;SDS011;16915;51.466;3.610;2022-12-18T13:52:27;19.48;;;11.25;;
30096;SDS011;16915;51.466;3.610;2022-12-18T13:54:58;23.58;;;12.15;;
30096;SDS011;16915;51.466;3.610;2022-12-18T13:57:30;14.65;;;9.73;;
30096;SDS011;16915;51.466;3.610;2022-12-18T13:59:58;25.02;;;12.00;;
30096;SDS011;16915;51.466;3.610;2022-12-18T14:02:44;20.17;;;10.85;;
30096;SDS011;16915;51.466;3.610;2022-12-18T14:05:21;19.80;;;11.15;;
30096;SDS011;16915;51.466;3.610;2022-12-18T14:07:49;21.40;;;12.23;;
30096;SDS011;16915;51.466;3.610;2022-12-18T14:10:16;24.50;;;12.15;;
30096;SDS011;16915;51.466;3.610;2022-12-18T14:12:45;19.63;;;11.05;;
30096;SDS011;16915;51.466;3.610;2022-12-18T14:17:50;24.58;;;12.70;;
30096;SDS011;16915;51.466;3.610;2022-12-18T14:20:18;27.40;;;13.25;;
30096;SDS011;16915;51.466;3.610;2022-12-18T14:22:45;26.55;;;12.90;;
30096;SDS011;16915;51.466;3.610;2022-12-18T14:27:49;26.10;;;13.38;;
30096;SDS011;16915;51.466;3.610;2022-12-18T14:30:29;22.35;;;12.50;;
30096;SDS011;16915;51.466;3.610;2022-12-18T14:33:00;28.25;;;12.98;;
30096;SDS011;16915;51.466;3.610;2022-12-18T14:35:41;30.08;;;13.45;;
30096;SDS011;16915;51.466;3.610;2022-12-18T14:40:53;27.90;;;14.38;;
30096;SDS011;16915;51.466;3.610;2022-12-18T14:43:25;28.08;;;12.65;;
30096;SDS011;16915;51.466;3.610;2022-12-18T14:45:59;25.33;;;13.15;;
30096;SDS011;16915;51.466;3.610;2022-12-18T14:48:36;26.58;;;13.05;;
30096;SDS011;16915;51.466;3.610;2022-12-18T14:56:44;27.70;;;13.43;;
30096;SDS011;16915;51.466;3.610;2022-12-18T14:59:19;28.52;;;13.20;;
30096;SDS011;16915;51.466;3.610;2022-12-18T15:05:04;31.10;;;13.73;;
30096;SDS011;16915;51.466;3.610;2022-12-18T15:07:42;26.98;;;13.98;;
30096;SDS011;16915;51.466;3.610;2022-12-18T15:18:00;27.88;;;13.85;;
30096;SDS011;16915;51.466;3.610;2022-12-18T15:26:00;28.35;;;13.52;;
30096;SDS011;16915;51.466;3.610;2022-12-18T15:28:27;28.30;;;12.57;;
30096;SDS011;16915;51.466;3.610;2022-12-18T15:31:05;25.48;;;11.98;;
30096;SDS011;16915;51.466;3.610;2022-12-18T15:33:35;19.60;;;10.45;;
30096;SDS011;16915;51.466;3.610;2022-12-18T15:36:03;29.30;;;13.35;;
30096;SDS011;16915;51.466;3.610;2022-12-18T15:38:33;33.20;;;13.70;;
30096;SDS011;16915;51.466;3.610;2022-12-18T15:40:59;31.13;;;14.32;;
30096;SDS011;16915;51.466;3.610;2022-12-18T15:43:25;27.60;;;13.38;;
30096;SDS011;16915;51.466;3.610;2022-12-18T15:46:02;29.77;;;13.68;;
30096;SDS011;16915;51.466;3.610;2022-12-18T15:48:30;30.05;;;14.55;;
30096;SDS011;16915;51.466;3.610;2022-12-18T15:51:02;30.42;;;14.23;;
30096;SDS011;16915;51.466;3.610;2022-12-18T15:53:30;28.08;;;14.18;;
30096;SDS011;16915;51.466;3.610;2022-12-18T15:55:58;30.23;;;15.18;;
30096;SDS011;16915;51.466;3.610;2022-12-18T15:58:42;29.48;;;13.75;;
30096;SDS011;16915;51.466;3.610;2022-12-18T16:01:08;31.83;;;15.13;;
30096;SDS011;16915;51.466;3.610;2022-12-18T16:03:35;31.48;;;14.02;;
30096;SDS011;16915;51.466;3.610;2022-12-18T16:06:01;31.73;;;14.55;;
30096;SDS011;16915;51.466;3.610;2022-12-18T16:08:27;33.92;;;15.05;;
30096;SDS011;16915;51.466;3.610;2022-12-18T16:10:54;32.13;;;14.00;;
30096;SDS011;16915;51.466;3.610;2022-12-18T16:13:21;30.02;;;14.82;;
30096;SDS011;16915;51.466;3.610;2022-12-18T16:15:46;33.90;;;14.85;;
30096;SDS011;16915;51.466;3.610;2022-12-18T16:18:12;32.92;;;15.65;;
30096;SDS011;16915;51.466;3.610;2022-12-18T16:20:38;34.75;;;15.38;;
30096;SDS011;16915;51.466;3.610;2022-12-18T16:23:04;31.55;;;14.20;;
30096;SDS011;16915;51.466;3.610;2022-12-18T16:25:29;30.40;;;14.85;;
30096;SDS011;16915;51.466;3.610;2022-12-18T16:27:56;27.70;;;13.82;;
30096;SDS011;16915;51.466;3.610;2022-12-18T16:30:26;33.92;;;15.52;;
30096;SDS011;16915;51.466;3.610;2022-12-18T16:32:55;31.88;;;15.20;;
30096;SDS011;16915;51.466;3.610;2022-12-18T16:35:21;29.25;;;14.13;;
30096;SDS011;16915;51.466;3.610;2022-12-18T16:37:47;36.20;;;15.57;;
30096;SDS011;16915;51.466;3.610;2022-12-18T16:40:13;23.55;;;12.45;;
30096;SDS011;16915;51.466;3.610;2022-12-18T16:42:41;32.10;;;14.13;;
30096;SDS011;16915;51.466;3.610;2022-12-18T16:45:09;32.53;;;14.43;;
30096;SDS011;16915;51.466;3.610;2022-12-18T16:47:36;33.17;;;15.15;;
30096;SDS011;16915;51.466;3.610;2022-12-18T16:50:03;28.80;;;13.35;;